Time;durP1;ratioP1;P1;durP2;ratioP2;P2;SDS_P1;SDS_P2;PMS_P1;PMS_P2;Temp;Humidity;BMP_temperature;BMP_pressure;BME280_temperature;BME280_humidity;BME280_pressure;Samples;Min_cycle;Max_cycle;Signal;HPM_P1;HPM_P2
2021/03/20 00:00:57;;;;;;;23.38;13.62;;;;;;;2.44;57.72;100125.88;4466907;32;33967;-80
2021/03/20 00:03:25;;;;;;;21.77;12.55;;;;;;;2.60;56.92;100124.03;4480846;32;34392;-80
2021/03/20 00:05:53;;;;;;;23.80;12.77;;;;;;;2.64;56.62;100133.59;4480001;32;33409;-80
2021/03/20 00:08:27;;;;;;;23.17;12.80;;;;;;;2.52;57.00;100136.28;4480861;32;33681;-80
2021/03/20 00:10:55;;;;;;;22.25;12.48;;;;;;;2.62;56.70;100137.09;4479434;32;33762;-80
2021/03/20 00:13:24;;;;;;;21.45;13.20;;;;;;;2.62;56.66;100124.91;4480701;32;33352;-80
2021/03/20 00:15:53;;;;;;;19.33;12.35;;;;;;;2.41;57.76;100138.06;4480408;32;33612;-81
2021/03/20 00:18:22;;;;;;;22.13;13.05;;;;;;;2.40;58.04;100133.72;4468269;32;33595;-80
2021/03/20 00:20:50;;;;;;;22.65;13.02;;;;;;;2.07;59.19;100133.00;4467350;32;33529;-81
2021/03/20 00:23:18;;;;;;;25.92;14.07;;;;;;;1.82;59.81;100142.66;4455233;32;33492;-80
2021/03/20 00:25:45;;;;;;;26.27;14.82;;;;;;;2.07;59.74;100147.78;4469574;32;33673;-80
2021/03/20 00:28:21;;;;;;;24.23;13.85;;;;;;;2.20;59.07;100146.84;4483122;32;33566;-80
2021/03/20 00:30:55;;;;;;;25.62;13.62;;;;;;;2.10;59.28;100143.41;4470538;32;33273;-80
2021/03/20 00:33:23;;;;;;;24.52;12.88;;;;;;;2.37;58.51;100141.53;4469754;32;34241;-80
2021/03/20 00:35:51;;;;;;;26.33;14.48;;;;;;;2.12;58.96;100140.81;4457441;32;32794;-80
2021/03/20 00:38:18;;;;;;;24.67;13.20;;;;;;;2.42;57.90;100147.59;4481933;32;34581;-80
2021/03/20 00:40:46;;;;;;;20.52;12.48;;;;;;;2.41;57.77;100146.75;4467368;32;33367;-80
2021/03/20 00:43:14;;;;;;;18.58;11.57;;;;;;;2.20;58.16;100149.47;4469092;32;33901;-80
2021/03/20 00:45:41;;;;;;;17.05;11.75;;;;;;;2.24;58.36;100152.03;4483189;32;34115;-81
2021/03/20 00:48:12;;;;;;;18.42;11.70;;;;;;;2.00;59.16;100157.34;4456523;32;33137;-82
2021/03/20 00:50:40;;;;;;;20.17;11.95;;;;;;;2.00;59.17;100152.16;4455732;32;34220;-81
2021/03/20 00:53:08;;;;;;;17.75;11.10;;;;;;;2.09;58.77;100157.31;4469937;32;33449;-81
2021/03/20 00:55:35;;;;;;;18.58;11.40;;;;;;;2.23;58.10;100160.75;4482184;32;33888;-82
2021/03/20 00:58:24;;;;;;;18.17;11.65;;;;;;;2.10;58.32;100158.19;4483127;32;33715;-81
2021/03/20 01:01:04;;;;;;;18.73;10.98;;;;;;;1.84;58.92;100155.66;4482762;32;35080;-81
2021/03/20 01:03:33;;;;;;;18.23;11.02;;;;;;;2.07;58.09;100156.44;4457190;32;32940;-80
2021/03/20 01:06:00;;;;;;;19.52;12.40;;;;;;;2.11;57.61;100155.56;4482465;32;35474;-81
2021/03/20 01:08:27;;;;;;;19.35;11.80;;;;;;;1.88;58.20;100158.25;4469320;32;33752;-80
2021/03/20 01:10:55;;;;;;;20.65;11.38;;;;;;;2.07;57.87;100151.22;4481827;32;33580;-80
2021/03/20 01:13:22;;;;;;;19.73;12.07;;;;;;;2.19;57.32;100152.94;4482648;32;32938;-80
2021/03/20 01:15:49;;;;;;;17.27;10.95;;;;;;;1.95;58.29;100153.91;4469345;32;34164;-80
2021/03/20 01:18:17;;;;;;;18.65;10.65;;;;;;;2.13;57.68;100153.81;4466893;32;34387;-80
2021/03/20 01:20:45;;;;;;;19.92;11.10;;;;;;;2.01;57.81;100151.25;4482312;32;33502;-80
2021/03/20 01:23:13;;;;;;;18.10;10.88;;;;;;;2.03;57.53;100157.31;4470087;32;33195;-80
2021/03/20 01:25:41;;;;;;;23.10;11.45;;;;;;;1.99;57.91;100160.81;4468143;32;33750;-80
2021/03/20 01:28:09;;;;;;;17.52;10.38;;;;;;;1.95;57.96;100165.19;4469376;32;34708;-80
2021/03/20 01:30:39;;;;;;;24.20;12.13;;;;;;;1.89;57.45;100159.97;4468346;32;33659;-80
2021/03/20 01:33:07;;;;;;;20.15;11.93;;;;;;;2.08;57.08;100160.78;4465369;32;32910;-81
2021/03/20 01:35:35;;;;;;;21.30;11.00;;;;;;;1.87;57.73;100159.13;4469309;32;33899;-81
2021/03/20 01:38:03;;;;;;;19.60;11.32;;;;;;;1.26;59.03;100167.88;4484173;31;33376;-81
2021/03/20 01:40:38;;;;;;;18.10;10.70;;;;;;;1.48;58.09;100168.75;4471208;32;34416;-81
2021/03/20 01:43:06;;;;;;;19.42;10.80;;;;;;;1.52;58.00;100169.59;4458126;32;34890;-81
2021/03/20 01:45:36;;;;;;;16.02;10.35;;;;;;;1.60;57.88;100161.78;4484195;32;34540;-81
2021/03/20 01:48:13;;;;;;;17.45;11.20;;;;;;;1.72;57.47;100167.84;4470894;32;34505;-81
2021/03/20 01:50:47;;;;;;;18.17;11.32;;;;;;;1.48;58.49;100173.09;4483730;32;33425;-81
2021/03/20 01:53:40;;;;;;;19.58;11.85;;;;;;;1.41;58.88;100174.81;4470737;32;35062;-81
2021/03/20 01:56:11;;;;;;;20.90;11.43;;;;;;;1.35;59.57;100177.41;4476877;32;34642;-81
2021/03/20 01:58:40;;;;;;;22.67;12.00;;;;;;;1.74;57.66;100175.63;4477577;32;33490;-81
2021/03/20 02:01:14;;;;;;;21.33;12.18;;;;;;;1.76;57.71;100177.38;4468516;32;34452;-81
2021/03/20 02:03:42;;;;;;;15.85;10.65;;;;;;;1.82;57.39;100170.41;4471243;32;33278;-80
2021/03/20 02:06:09;;;;;;;17.80;10.95;;;;;;;1.51;58.21;100175.66;4470779;32;34320;-80
2021/03/20 02:08:38;;;;;;;21.17;11.30;;;;;;;1.17;59.35;100186.06;4484165;32;34611;-81
2021/03/20 02:11:16;;;;;;;19.23;11.75;;;;;;;1.08;59.52;100177.41;4470693;32;35274;-80
2021/03/20 02:13:50;;;;;;;22.60;12.77;;;;;;;1.12;59.27;100176.53;4481156;32;32629;-82
2021/03/20 02:16:30;;;;;;;18.92;11.85;;;;;;;1.20;58.46;100185.22;4470526;32;33710;-80
2021/03/20 02:19:18;;;;;;;20.33;11.75;;;;;;;1.26;57.92;100177.41;4457018;32;32887;-80
2021/03/20 02:22:01;;;;;;;22.95;12.88;;;;;;;1.27;57.57;100174.81;4483209;32;33615;-81
2021/03/20 02:24:31;;;;;;;;;;;;;;;1.10;58.14;100171.34;4470897;32;33973;-81
2021/03/20 02:27:20;;;;;;;23.25;12.27;;;;;;;1.06;58.15;100174.81;4469250;32;33213;-81
2021/03/20 02:29:47;;;;;;;21.83;12.13;;;;;;;1.07;58.67;100175.69;4470638;32;35516;-81
2021/03/20 02:32:23;;;;;;;22.23;12.48;;;;;;;1.28;58.06;100180.88;4483432;32;34448;-81
2021/03/20 02:35:12;;;;;;;19.92;12.20;;;;;;;0.92;59.68;100187.78;4486862;31;34507;-81
2021/03/20 02:38:04;;;;;;;18.60;10.77;;;;;;;0.90;59.34;100193.84;4482754;32;34330;-81
2021/03/20 02:40:58;;;;;;;19.58;10.82;;;;;;;1.00;58.52;100190.41;4478617;32;33220;-81
2021/03/20 02:43:53;;;;;;;17.77;11.52;;;;;;;1.11;58.00;100193.88;4470997;32;33686;-81
2021/03/20 02:46:34;;;;;;;21.27;11.57;;;;;;;1.05;57.75;100199.09;4482859;32;33228;-80
2021/03/20 02:49:13;;;;;;;21.77;12.75;;;;;;;0.74;58.43;100198.16;4457019;32;33979;-80
2021/03/20 02:51:49;;;;;;;23.60;12.63;;;;;;;0.81;58.95;100207.72;4468369;32;34359;-80
2021/03/20 02:54:50;;;;;;;26.02;12.48;;;;;;;0.81;58.85;100209.41;4482253;32;31753;-80
2021/03/20 02:57:27;;;;;;;24.42;12.95;;;;;;;0.71;59.27;100203.31;4458416;32;33819;-80
2021/03/20 03:00:04;;;;;;;24.08;13.77;;;;;;;0.74;59.52;100195.56;4470549;32;33346;-80
2021/03/20 03:02:34;;;;;;;25.05;13.82;;;;;;;0.41;60.15;100199.78;4483547;32;33991;-79
2021/03/20 03:05:10;;;;;;;22.02;12.07;;;;;;;1.07;57.93;100206.87;4466939;32;113001;-79
2021/03/20 03:07:45;;;;;;;24.25;13.32;;;;;;;0.30;60.02;100211.00;4470303;32;32988;-80
2021/03/20 03:10:24;;;;;;;24.30;11.75;;;;;;;0.55;59.41;100215.41;4483284;32;33379;-81
2021/03/20 03:13:05;;;;;;;26.23;13.45;;;;;;;0.71;58.81;100214.63;4470012;32;34903;-80
2021/03/20 03:15:46;;;;;;;23.23;12.85;;;;;;;0.42;59.61;100213.63;4483450;32;33670;-80
2021/03/20 03:18:21;;;;;;;21.48;12.37;;;;;;;0.67;58.92;100223.28;4482528;32;33953;-80
2021/03/20 03:20:51;;;;;;;27.27;12.65;;;;;;;0.42;59.62;100226.63;4480881;32;34575;-79
2021/03/20 03:23:22;;;;;;;26.50;13.02;;;;;;;0.60;58.45;100218.91;4470094;32;35680;-81
2021/03/20 03:25:56;;;;;;;25.57;13.57;;;;;;;0.50;58.46;100223.19;4465345;31;32139;-79
2021/03/20 03:28:28;;;;;;;25.48;14.68;;;;;;;0.40;59.10;100233.56;4467641;32;33374;-80
2021/03/20 03:31:04;;;;;;;26.50;13.07;;;;;;;0.44;59.01;100224.91;4457434;32;32737;-80
2021/03/20 03:33:55;;;;;;;29.55;14.10;;;;;;;0.55;58.27;100236.19;4481081;32;34343;-80
2021/03/20 03:36:22;;;;;;;31.50;14.90;;;;;;;0.42;58.96;100242.22;4467427;32;33175;-80
2021/03/20 03:39:07;;;;;;;32.38;16.15;;;;;;;0.52;58.86;100243.97;4469914;32;34306;-79
2021/03/20 03:41:37;;;;;;;24.87;13.70;;;;;;;0.54;59.24;100241.41;4464846;32;34723;-80
2021/03/20 03:44:07;;;;;;;25.80;14.10;;;;;;;0.44;58.57;100245.69;4469807;32;33635;-80
2021/03/20 03:46:44;;;;;;;23.90;13.75;;;;;;;0.60;57.96;100246.63;4469705;32;34422;-81
2021/03/20 03:49:17;;;;;;;29.33;14.38;;;;;;;0.47;58.37;100246.56;4469722;32;33496;-80
2021/03/20 03:51:45;;;;;;;28.40;15.23;;;;;;;0.63;58.15;100241.44;4469318;32;33387;-81
2021/03/20 03:54:12;;;;;;;36.30;17.00;;;;;;;0.59;58.20;100237.97;4482789;32;33658;-80
2021/03/20 03:56:42;;;;;;;29.90;15.55;;;;;;;0.48;58.17;100243.13;4469444;32;34552;-79
2021/03/20 03:59:20;;;;;;;30.05;16.05;;;;;;;0.66;57.73;100241.44;4483759;32;35605;-79
2021/03/20 04:02:00;;;;;;;31.10;15.25;;;;;;;0.65;57.61;100232.78;4483144;32;33379;-80
2021/03/20 04:04:37;;;;;;;27.95;14.07;;;;;;;0.77;57.17;100245.81;4471696;32;34694;-80
2021/03/20 04:07:10;;;;;;;29.60;15.20;;;;;;;0.79;57.06;100247.53;4482235;32;33709;-80
2021/03/20 04:09:47;;;;;;;31.08;16.00;;;;;;;0.47;57.57;100253.47;4485427;32;32925;-79
2021/03/20 04:12:19;;;;;;;25.62;14.20;;;;;;;0.54;57.64;100251.81;4484649;32;35198;-80
2021/03/20 04:14:59;;;;;;;32.20;14.65;;;;;;;0.49;58.25;100254.37;4471935;32;34417;-81
2021/03/20 04:17:50;;;;;;;26.67;14.27;;;;;;;0.57;57.73;100252.69;4471779;32;34129;-80
2021/03/20 04:20:23;;;;;;;30.23;13.95;;;;;;;0.32;58.76;100250.81;4457578;32;31982;-80
2021/03/20 04:23:00;;;;;;;24.55;14.02;;;;;;;0.34;58.63;100255.19;4465378;32;32932;-80
2021/03/20 04:25:56;;;;;;;25.17;14.95;;;;;;;0.18;59.12;100254.22;4481315;32;34407;-80
2021/03/20 04:28:49;;;;;;;24.05;13.62;;;;;;;0.16;58.92;100260.28;4471830;32;35313;-80
2021/03/20 04:31:35;;;;;;;23.62;13.20;;;;;;;0.46;57.85;100265.59;4467832;32;33046;-79
2021/03/20 04:34:33;;;;;;;25.15;12.95;;;;;;;0.45;57.57;100252.62;4483363;32;34571;-80
2021/03/20 04:37:06;;;;;;;26.87;14.48;;;;;;;0.38;58.05;100253.44;4470344;32;34837;-80
2021/03/20 04:39:37;;;;;;;26.60;15.30;;;;;;;0.46;57.48;100254.34;4471230;32;34323;-80
2021/03/20 04:42:19;;;;;;;25.48;13.30;;;;;;;0.43;57.16;100256.97;4484841;32;33308;-80
2021/03/20 04:44:47;;;;;;;27.48;15.07;;;;;;;0.23;57.69;100257.69;4471439;32;33657;-81
2021/03/20 04:47:18;;;;;;;26.27;14.90;;;;;;;0.08;58.91;100262.81;4471477;32;33276;-80
2021/03/20 04:49:56;;;;;;;25.40;14.02;;;;;;;0.07;58.45;100261.06;4471131;32;34145;-79
2021/03/20 04:52:41;;;;;;;27.17;15.30;;;;;;;0.16;58.11;100263.72;4468160;32;35070;-79
2021/03/20 04:55:11;;;;;;;25.35;13.90;;;;;;;0.23;57.85;100262.88;4457966;32;34480;-79
2021/03/20 04:57:50;;;;;;;29.77;15.48;;;;;;;0.12;58.53;100259.38;4484285;32;33817;-79
2021/03/20 05:00:32;;;;;;;26.17;15.30;;;;;;;-0.12;59.89;100262.69;4475545;32;32020;-79
2021/03/20 05:03:23;;;;;;;26.27;14.75;;;;;;;-0.04;59.18;100262.75;4478794;32;32755;-79
2021/03/20 05:06:01;;;;;;;26.85;14.43;;;;;;;-0.02;59.48;100267.06;4477935;32;33076;-79
2021/03/20 05:08:35;;;;;;;24.52;14.70;;;;;;;0.02;59.44;100269.69;4478711;32;33092;-79
2021/03/20 05:11:09;;;;;;;26.73;15.02;;;;;;;0.12;58.72;100274.97;4453295;32;36368;-79
2021/03/20 05:13:46;;;;;;;25.83;15.52;;;;;;;-0.13;59.61;100278.25;4474750;31;33584;-80
2021/03/20 05:16:16;;;;;;;24.87;15.40;;;;;;;-0.09;59.92;100278.28;4464883;32;33216;-79
2021/03/20 05:18:46;;;;;;;26.02;14.82;;;;;;;0.19;59.16;100278.44;4479921;32;33127;-79
2021/03/20 05:21:15;;;;;;;31.05;16.20;;;;;;;0.34;58.42;100275.09;4451918;32;32332;-79
2021/03/20 05:23:42;;;;;;;30.55;15.77;;;;;;;0.08;59.21;100280.97;4475738;32;34558;-79
2021/03/20 05:26:11;;;;;;;33.25;15.52;;;;;;;0.18;58.97;100276.72;4463571;31;34165;-79
2021/03/20 05:28:39;;;;;;;28.52;14.63;;;;;;;0.23;58.79;100277.59;4473922;32;33604;-79
2021/03/20 05:31:07;;;;;;;26.48;15.18;;;;;;;-0.13;59.34;100288.63;4463315;32;33110;-79
2021/03/20 05:33:37;;;;;;;37.80;16.67;;;;;;;0.27;59.11;100288.88;4464152;32;32842;-80
2021/03/20 05:36:05;;;;;;;29.98;16.80;;;;;;;0.27;59.40;100291.50;4462096;32;33627;-80
2021/03/20 05:38:33;;;;;;;30.42;16.48;;;;;;;0.44;59.08;100295.91;4465136;32;34411;-79
2021/03/20 05:41:25;;;;;;;31.40;16.37;;;;;;;0.43;59.18;100295.94;4464540;32;33289;-80
2021/03/20 05:44:12;;;;;;;31.02;15.80;;;;;;;0.55;58.88;100295.97;4480061;32;32681;-80
2021/03/20 05:46:46;;;;;;;34.25;18.20;;;;;;;0.71;58.28;100295.19;4477318;32;33347;-80
2021/03/20 05:49:23;;;;;;;32.72;17.02;;;;;;;0.58;59.32;100300.31;4478121;32;35619;-80
2021/03/20 05:52:04;;;;;;;29.23;17.45;;;;;;;0.69;59.63;100294.31;4478996;32;32599;-80
2021/03/20 05:54:53;;;;;;;37.05;20.58;;;;;;;0.76;59.74;100298.69;4476838;32;34108;-79
2021/03/20 05:57:47;;;;;;;35.60;19.02;;;;;;;0.78;60.16;100298.66;4481093;31;33261;-79
2021/03/20 06:00:56;;;;;;;39.67;18.90;;;;;;;1.02;59.70;100295.28;4463929;32;33692;-81
2021/03/20 06:03:49;;;;;;;37.10;18.67;;;;;;;1.31;59.35;100310.97;4444507;32;33872;-80
2021/03/20 06:06:22;;;;;;;34.60;18.20;;;;;;;1.35;60.29;100306.62;4479004;32;33502;-80
2021/03/20 06:09:04;;;;;;;31.65;17.02;;;;;;;1.48;60.41;100311.00;4475320;32;33194;-80
2021/03/20 06:11:38;;;;;;;31.45;18.17;;;;;;;1.40;61.14;100315.31;4474401;32;34616;-80
2021/03/20 06:14:06;;;;;;;34.38;17.70;;;;;;;1.32;61.81;100319.63;4475469;32;33285;-80
2021/03/20 06:16:37;;;;;;;30.25;18.08;;;;;;;1.43;61.94;100316.19;4480380;32;32978;-80
2021/03/20 06:19:08;;;;;;;32.72;18.05;;;;;;;1.70;61.55;100320.53;4461508;32;33402;-80
2021/03/20 06:21:51;;;;;;;31.37;17.60;;;;;;;1.94;61.28;100309.25;4475813;32;34572;-80
2021/03/20 06:24:36;;;;;;;34.42;18.77;;;;;;;2.25;60.45;100311.84;4476672;32;33456;-81
2021/03/20 06:27:09;;;;;;;36.47;19.20;;;;;;;2.19;60.91;100310.12;4474683;32;32519;-80
2021/03/20 06:29:37;;;;;;;;;;;;;;;2.22;61.46;100312.72;4464689;32;31569;-80
2021/03/20 06:32:16;;;;;;;29.80;17.83;;;;;;;2.09;61.64;100318.81;4479198;32;32023;-80
2021/03/20 06:34:52;;;;;;;32.00;17.65;;;;;;;2.10;61.23;100330.09;4474668;32;33651;-80
2021/03/20 06:37:27;;;;;;;34.78;17.67;;;;;;;2.50;60.34;100320.47;4452575;32;32027;-80
2021/03/20 06:40:18;;;;;;;24.85;15.75;;;;;;;2.77;60.70;100317.78;4477301;32;33701;-80
2021/03/20 06:42:47;;;;;;;33.45;17.15;;;;;;;3.13;59.27;100318.47;4467303;32;32310;-80
2021/03/20 06:45:22;;;;;;;26.60;16.12;;;;;;;2.64;60.74;100323.03;4468981;32;33708;-80
2021/03/20 06:47:57;;;;;;;28.00;16.20;;;;;;;3.01;59.85;100323.78;4467094;32;33953;-80
2021/03/20 06:50:32;;;;;;;29.05;16.35;;;;;;;2.66;59.83;100337.81;4460580;32;35392;-80
2021/03/20 06:53:03;;;;;;;26.87;15.68;;;;;;;3.11;59.12;100340.25;4478366;32;33447;-80
2021/03/20 06:55:36;;;;;;;26.33;16.12;;;;;;;3.26;58.74;100337.56;4476559;32;34615;-80
2021/03/20 06:58:13;;;;;;;29.45;16.37;;;;;;;3.38;58.28;100344.47;4456665;32;34576;-80
2021/03/20 07:00:40;;;;;;;26.77;16.23;;;;;;;3.40;58.13;100348.78;4475653;32;33482;-80
2021/03/20 07:03:23;;;;;;;26.85;16.87;;;;;;;3.34;58.83;100349.69;4454810;32;33398;-81
2021/03/20 07:06:15;;;;;;;27.80;15.77;;;;;;;3.61;57.97;100350.41;4474004;31;32744;-80
2021/03/20 07:08:54;;;;;;;26.42;16.90;;;;;;;3.67;57.73;100357.34;4477162;32;34192;-81
2021/03/20 07:11:43;;;;;;;23.80;15.25;;;;;;;3.91;57.50;100364.12;4467162;32;33492;-81
2021/03/20 07:14:46;;;;;;;19.02;11.70;;;;;;;4.02;57.33;100368.38;4465345;32;33425;-81
2021/03/20 07:17:16;;;;;;;26.85;12.73;;;;;;;3.48;58.00;100369.63;4463454;32;33362;-81
2021/03/20 07:19:58;;;;;;;20.67;12.93;;;;;;;3.87;57.46;100371.12;4463963;32;34348;-80
2021/03/20 07:22:29;;;;;;;23.60;14.10;;;;;;;4.28;56.09;100378.63;4473710;32;33662;-80
2021/03/20 07:24:59;;;;;;;21.70;13.10;;;;;;;4.25;57.14;100376.03;4477839;32;31606;-81
2021/03/20 07:27:35;;;;;;;22.20;12.27;;;;;;;4.39;56.71;100370.69;4444114;32;33943;-81
2021/03/20 07:30:29;;;;;;;18.55;12.60;;;;;;;4.13;57.61;100373.53;4454929;32;35043;-81
2021/03/20 07:32:56;;;;;;;18.37;11.77;;;;;;;4.37;56.07;100383.78;4454333;32;34621;-80
2021/03/20 07:35:30;;;;;;;19.15;10.98;;;;;;;4.01;55.30;100384.09;4443225;32;35317;-81
2021/03/20 07:38:15;;;;;;;23.50;11.95;;;;;;;4.35;54.01;100380.28;4471096;32;33437;-81
2021/03/20 07:40:42;;;;;;;16.95;11.12;;;;;;;4.13;54.83;100381.38;4478044;31;34296;-82
2021/03/20 07:43:21;;;;;;;19.42;11.73;;;;;;;4.65;53.31;100382.63;4446039;32;33991;-81
2021/03/20 07:46:22;;;;;;;16.67;10.60;;;;;;;4.69;53.79;100382.56;4451217;32;35232;-83
2021/03/20 07:48:59;;;;;;;16.98;11.77;;;;;;;4.58;53.11;100380.06;4468733;32;34187;-81
2021/03/20 07:51:27;;;;;;;17.15;10.77;;;;;;;4.63;54.67;100393.13;4450913;32;34585;-81
2021/03/20 07:53:55;;;;;;;19.40;11.93;;;;;;;4.84;51.11;100384.16;4459330;32;35284;-81
2021/03/20 07:56:30;;;;;;;16.10;10.57;;;;;;;4.55;52.20;100402.78;4466947;31;33332;-81
2021/03/20 07:59:13;;;;;;;18.02;11.40;;;;;;;5.33;50.26;100389.69;4439580;32;35403;-82
2021/03/20 08:01:40;;;;;;;;;;;;;;;5.68;48.66;100396.19;4453526;32;35141;-81
2021/03/20 08:04:10;;;;;;;17.17;10.40;;;;;;;4.85;51.72;100397.25;4467878;32;34271;-81
2021/03/20 08:06:38;;;;;;;20.05;10.95;;;;;;;5.45;49.36;100388.66;4466433;32;33011;-81
2021/03/20 08:09:18;;;;;;;17.83;11.27;;;;;;;6.05;47.89;100390.44;4465676;32;32970;-82
2021/03/20 08:12:10;;;;;;;20.65;10.07;;;;;;;6.02;47.32;100396.59;4466166;32;34386;-82
2021/03/20 08:14:59;;;;;;;15.05;10.68;;;;;;;6.06;47.07;100398.28;4460093;32;33082;-82
2021/03/20 08:17:27;;;;;;;15.38;9.15;;;;;;;6.25;45.38;100390.97;4468730;32;34568;-81
2021/03/20 08:19:56;;;;;;;14.50;9.55;;;;;;;6.22;43.63;100404.16;4454250;32;33309;-82
2021/03/20 08:22:32;;;;;;;13.13;8.93;;;;;;;5.93;44.82;100399.34;4454960;32;32772;-82
2021/03/20 08:25:28;;;;;;;18.02;9.20;;;;;;;5.59;45.13;100401.56;4454876;32;34490;-82
2021/03/20 08:28:17;;;;;;;13.70;8.52;;;;;;;5.64;44.64;100400.59;4455937;32;33832;-83
2021/03/20 08:31:09;;;;;;;16.17;10.43;;;;;;;6.02;44.54;100393.09;4453819;32;34891;-82
2021/03/20 08:33:43;;;;;;;13.62;8.18;;;;;;;6.04;44.74;100404.44;4458801;32;33982;-81
2021/03/20 08:36:16;;;;;;;15.38;8.13;;;;;;;5.73;43.48;100404.84;4456378;32;33996;-84
2021/03/20 08:39:15;;;;;;;;;;;;;;;6.22;43.71;100404.16;4454440;32;33214;-84
2021/03/20 08:42:20;;;;;;;14.07;6.87;;;;;;;6.22;42.09;100412.03;4435723;32;34189;-81
2021/03/20 08:45:19;;;;;;;13.48;8.07;;;;;;;6.26;41.98;100416.31;4469365;32;34520;-81
2021/03/20 08:48:29;;;;;;;13.45;7.32;;;;;;;6.33;41.26;100428.44;4468561;32;34314;-81
2021/03/20 08:51:25;;;;;;;14.68;8.45;;;;;;;6.17;42.29;100413.81;4416207;32;33373;-81
2021/03/20 08:54:23;;;;;;;13.10;8.82;;;;;;;6.61;42.66;100417.50;4458578;32;34455;-81
2021/03/20 08:57:02;;;;;;;12.80;8.07;;;;;;;6.65;40.83;100409.53;4458017;32;35234;-81
2021/03/20 08:59:36;;;;;;;11.93;8.07;;;;;;;7.04;40.35;100406.19;4455070;32;33658;-81
2021/03/20 09:02:12;;;;;;;13.43;9.13;;;;;;;7.12;41.92;100405.16;4449578;32;33701;-80
2021/03/20 09:04:40;;;;;;;16.40;12.57;;;;;;;7.10;40.11;100414.81;4466319;32;33234;-81
2021/03/20 09:07:44;;;;;;;22.08;12.18;;;;;;;7.40;41.62;100409.81;4454044;32;33806;-80
2021/03/20 09:10:20;;;;;;;15.90;11.00;;;;;;;6.93;41.20;100414.25;4477359;32;34327;-81
2021/03/20 09:12:55;;;;;;;14.98;9.57;;;;;;;6.86;42.37;100425.78;4480795;32;33732;-81
2021/03/20 09:15:40;;;;;;;15.95;11.27;;;;;;;7.12;40.38;100414.75;4470617;32;33587;-81
2021/03/20 09:18:07;;;;;;;14.68;10.35;;;;;;;6.65;42.49;100424.41;4468009;32;33887;-81
2021/03/20 09:20:45;;;;;;;11.20;8.27;;;;;;;7.09;41.80;100425.34;4467766;32;34753;-81
2021/03/20 09:23:25;;;;;;;13.25;9.00;;;;;;;6.99;40.24;100411.53;4481694;32;33572;-81
2021/03/20 09:25:55;;;;;;;16.15;8.25;;;;;;;7.31;39.68;100416.16;4454434;32;33930;-81
2021/03/20 09:28:29;;;;;;;13.07;9.02;;;;;;;6.86;40.31;100434.50;4455635;32;35148;-83
2021/03/20 09:31:00;;;;;;;14.87;10.02;;;;;;;7.11;39.70;100428.78;4468621;32;34326;-81
2021/03/20 09:33:33;;;;;;;14.68;9.45;;;;;;;7.03;39.72;100425.47;4468093;32;34843;-81
2021/03/20 09:36:10;;;;;;;;;;;;;;;6.99;40.05;100426.44;4482056;32;33911;-81
2021/03/20 09:38:37;;;;;;;17.05;9.63;;;;;;;7.41;39.47;100427.34;4481996;32;32925;-80
2021/03/20 09:41:07;;;;;;;14.60;8.93;;;;;;;7.25;41.18;100418.88;4477815;32;34653;-80
2021/03/20 09:43:48;;;;;;;14.50;8.80;;;;;;;7.45;41.85;100421.09;4458474;32;33874;-80
2021/03/20 09:46:37;;;;;;;11.88;9.05;;;;;;;7.52;39.54;100419.22;4453279;32;35806;-81
2021/03/20 09:49:08;;;;;;;13.80;8.98;;;;;;;8.01;39.47;100418.97;4464993;32;32983;-80
2021/03/20 09:51:47;;;;;;;12.20;9.43;;;;;;;7.35;39.00;100433.56;4468047;32;34651;-81
2021/03/20 09:54:32;;;;;;;15.50;9.20;;;;;;;7.44;39.38;100427.25;4466209;32;33825;-80
2021/03/20 09:57:06;;;;;;;20.33;9.90;;;;;;;7.55;40.66;100427.91;4454120;32;33222;-81
2021/03/20 10:02:03;;;;;;;16.40;9.10;;;;;;;7.71;40.48;100423.19;4465968;32;33242;-81
2021/03/20 10:04:36;;;;;;;13.80;7.85;;;;;;;7.41;39.69;100430.81;4454925;32;33948;-81
2021/03/20 10:07:20;;;;;;;17.95;9.85;;;;;;;7.79;37.92;100423.87;4464633;31;33964;-81
2021/03/20 10:10:13;;;;;;;16.08;9.90;;;;;;;7.20;38.82;100439.12;4465308;32;32918;-81
2021/03/20 10:12:44;;;;;;;12.93;9.20;;;;;;;7.82;36.65;100423.78;4441120;32;34245;-81
2021/03/20 10:15:15;;;;;;;11.25;8.77;;;;;;;7.59;38.68;100431.31;4458821;32;33256;-81
2021/03/20 10:18:10;;;;;;;11.65;8.88;;;;;;;8.21;36.47;100422.03;4469071;32;33682;-81
2021/03/20 10:20:44;;;;;;;16.58;9.63;;;;;;;7.94;35.76;100423.53;4455882;32;33984;-81
2021/03/20 10:23:15;;;;;;;14.13;8.90;;;;;;;7.89;36.66;100424.53;4454442;32;35053;-82
2021/03/20 10:25:55;;;;;;;11.77;8.03;;;;;;;8.10;35.64;100428.41;4453934;32;34313;-83
2021/03/20 10:28:30;;;;;;;14.13;9.48;;;;;;;7.97;35.70;100425.19;4467310;32;35450;-81
2021/03/20 10:31:05;;;;;;;13.30;9.00;;;;;;;8.02;35.72;100430.34;4471908;32;33337;-81
2021/03/20 10:33:41;;;;;;;13.73;8.73;;;;;;;7.81;36.30;100429.97;4470782;32;34344;-81
2021/03/20 10:36:15;;;;;;;12.93;8.40;;;;;;;7.89;36.27;100432.44;4462578;31;35000;-82
2021/03/20 10:38:44;;;;;;;11.52;8.65;;;;;;;7.77;36.47;100425.66;4459893;32;34951;-81
2021/03/20 10:41:13;;;;;;;16.95;8.98;;;;;;;7.24;36.98;100425.03;4447256;32;34593;-81
2021/03/20 10:43:52;;;;;;;13.43;9.00;;;;;;;7.68;36.54;100431.13;4473252;32;34872;-81
2021/03/20 10:46:24;;;;;;;14.18;9.68;;;;;;;7.26;38.50;100430.25;4460502;32;32267;-82
2021/03/20 10:48:54;;;;;;;15.85;10.07;;;;;;;7.32;38.20;100428.38;4450865;32;32766;-82
2021/03/20 10:51:22;;;;;;;12.93;9.52;;;;;;;7.40;38.12;100429.06;4472640;32;34310;-81
2021/03/20 10:53:55;;;;;;;18.60;12.88;;;;;;;7.33;37.74;100430.09;4471155;32;34544;-82
2021/03/20 10:56:35;;;;;;;14.00;8.63;;;;;;;7.65;37.71;100420.69;4471914;32;34801;-82
2021/03/20 10:59:24;;;;;;;12.80;9.80;;;;;;;7.28;37.29;100425.84;4460185;32;33227;-82
2021/03/20 11:01:52;;;;;;;15.52;9.13;;;;;;;7.10;37.81;100427.06;4452323;32;34573;-82
2021/03/20 11:04:33;;;;;;;13.70;9.32;;;;;;;7.54;36.66;100425.28;4445279;32;34795;-82
2021/03/20 11:07:02;;;;;;;11.63;8.80;;;;;;;7.90;37.31;100424.50;4452509;32;34498;-82
2021/03/20 11:09:32;;;;;;;13.48;8.55;;;;;;;8.27;34.94;100425.41;4455055;32;32898;-82
2021/03/20 11:12:06;;;;;;;15.63;9.85;;;;;;;8.37;35.33;100416.41;4466105;32;33997;-81
2021/03/20 11:14:52;;;;;;;13.13;8.60;;;;;;;8.01;35.97;100423.37;4457350;32;33547;-82
2021/03/20 11:17:23;;;;;;;12.25;8.65;;;;;;;8.75;33.05;100412.78;4454483;32;33122;-82
2021/03/20 11:20:03;;;;;;;13.77;8.77;;;;;;;8.54;34.20;100408.06;4462995;32;34894;-82
2021/03/20 11:22:31;;;;;;;17.27;9.10;;;;;;;9.07;33.38;100414.56;4467251;32;34151;-82
2021/03/20 11:25:04;;;;;;;13.98;8.98;;;;;;;9.04;33.14;100401.47;4466109;32;31408;-82
2021/03/20 11:27:34;;;;;;;15.25;10.23;;;;;;;8.97;37.64;100403.41;4465907;32;33303;-81
2021/03/20 11:30:17;;;;;;;9.73;7.85;;;;;;;9.55;33.38;100400.03;4453894;32;33360;-82
2021/03/20 11:32:46;;;;;;;13.85;8.32;;;;;;;9.42;31.38;100404.78;4468930;32;33142;-81
2021/03/20 11:35:27;;;;;;;15.98;8.40;;;;;;;9.21;31.37;100403.66;4467910;32;33164;-82
2021/03/20 11:38:00;;;;;;;12.60;8.30;;;;;;;9.15;33.88;100390.63;4440723;32;36003;-82
2021/03/20 11:40:34;;;;;;;11.82;8.18;;;;;;;9.21;32.30;100393.09;4452711;32;32877;-82
2021/03/20 11:43:03;;;;;;;13.45;8.43;;;;;;;9.12;33.12;100385.47;4449489;32;32709;-82
2021/03/20 11:45:37;;;;;;;13.07;8.85;;;;;;;9.56;31.68;100383.28;4441227;32;35080;-82
2021/03/20 11:48:34;;;;;;;12.43;8.45;;;;;;;9.69;29.94;100374.09;4465666;32;33996;-82
2021/03/20 11:51:05;;;;;;;10.85;7.87;;;;;;;10.18;29.57;100369.88;4459809;32;34423;-82
2021/03/20 11:53:46;;;;;;;13.80;8.23;;;;;;;9.73;32.35;100376.59;4463873;32;34484;-81
2021/03/20 11:56:29;;;;;;;15.48;8.30;;;;;;;9.77;30.69;100371.19;4456826;32;33277;-82
2021/03/20 11:59:00;;;;;;;15.20;8.95;;;;;;;10.06;30.25;100365.84;4442769;32;35670;-82
2021/03/20 12:01:34;;;;;;;14.15;7.62;;;;;;;9.70;30.13;100363.50;4456770;32;34311;-82
2021/03/20 12:04:08;;;;;;;14.65;7.87;;;;;;;9.62;30.88;100364.62;4464891;32;32825;-82